Airfield :
LOGIN :

Register | Disclaimer

   EN    FR    IT 

 










Legend :    VFR   Marginal VFR   IFR   Intensive IFR   Very Intensive IFR
Visi :
Ceiling :
>= 8 km
>= 3000ft
5 to 8 km
1000 to 3000 ft
1500m to 5 km
500 to 1000 ft
800 to 1500m
200 to 500 ft
< 800m
< 200 ft
Symbols :   Thunderstorms  Fog  Heavy snow  Heavy precipitations  Wind > 20 kt
SIGMETs :     Misc.  Thunderstorms  Icing  Turbulence  Mountain Waves  Volcanic Ashes







- Airport Elevation : 83 ft
- IATA code : LHR
- Download approach charts


EGLL - London Heathrow

CURRENT METAR :
  • 262020Z AUTO 27003KT 9999 BKN049 10/03 Q1033 NOSIG

EXPIRED METARs :
  • 261950Z AUTO VRB01KT 9999 BKN048 12/02 Q1033 NOSIG
  • 261920Z AUTO 31002KT 9999 SCT048 12/02 Q1033 NOSIG
  • 261850Z AUTO VRB02KT 9999 NCD 12/02 Q1033 NOSIG
  • 261820Z AUTO 32004KT 290V360 9999 NCD 12/02 Q1033 NOSIG
  • 261750Z AUTO 33004KT 290V020 9999 NCD 12/02 Q1033

TAF TAF EGLL
Valid from the 26 at 18:00 until the 28 at 00:00 UTC


261656Z 2618/2724 33005KT 9999 SCT045
PROB30
TEMPO 2703/2708 8000
No reported NOTAMs for that airfield.



MET'MAP, your aeronautical weather chart ! - Copyright ORBIFLY December 2007 - Disclaimer

ORBIFLY MET'MAP TEAM :

Programming & Development : Alexandra Zaïnal
Concept & Development : Baudouin d'Aumeries
Co-Development & Prog : Marc-Olivier Méhu
Technical & hardware support : Manuel Goepfert

Contact : metmap@orbifly.com




SOURCES & CREDITS :

   NOAA